Newport, NC (28570)

12:14 PM EDT on September 23, 2014 (GMT -0400)
Southpark | Change Station
CLOSE
Current Station
Personal Weather Station
Location: Newport, NC
Elevation: 19 ft
Nearby Weather Stations
Active Advisory: Beach Hazard Statement

Elev 19 ft 34.79 °N, 76.86 °W | Updated 4 minutes ago

Overcast
Overcast
67.6 °F
Feels Like 67.6 °F
N
1.0
Wind Variable Wind from SE
Gusts 1.0 mph

Today
High -- | Low -- °F
--% Chance of Precip.
Yesterday
High -- | Low -- °F
Precip. -- in
6:56 AM 7:02 PM
Waning Crescent, 0% visible
Pressure 30.23 in
Visibility 10.0 miles
Clouds Overcast 12000 ft
Dew Point 62 °F
Humidity 83%
Rainfall 0.00 in
Snow Depth Not available.
UV 2 out of 12
Pollen 4.70 out of 12
Air Quality Not available.
Flu Activity Not available.
METAR KNKT 231554Z COR 01012KT 10SM OVC120 19/15 A3024 RMK AO2 SLP236 T01940150

More Conditions Fewer Conditions

Pressure 30.23 in
Visibility 10.0 miles
Clouds Overcast 12000 ft
Dew Point 62 °F
Humidity 83%
Rainfall 0.00 in
Snow Depth Not available.
UV 2 out of 12
Pollen 4.70 out of 12
Air Quality Not available.
Flu Activity Not available.
METAR KNKT 231554Z COR 01012KT 10SM OVC120 19/15 A3024 RMK AO2 SLP236 T01940150

More Conditions Fewer Conditions

10-Day Weather Forecast

Almanac

Astronomy

Sep. 23, 2014 Rise Set
Actual Time 6:56 AM EDT 7:02 PM EDT
Civil Twilight 6:31 AM EDT 7:28 PM EDT
Nautical Twilight 6:01 AM EDT 7:57 PM EDT
Astronomical Twilight 5:31 AM EDT 8:27 PM EDT
Moon 6:19 AM EDT 6:41 PM EDT
Length of Visible Light 12h 56m
Length of Day
12h 06m
Tomorrow will be 2m 10s shorter.
Waning Crescent, 0% of the Moon is Illuminated
Today
Waning Crescent
Sep 24
New
Oct 1
First Quarter
Oct 8
Full
Oct 15
Last Quarter

Today's Extremes

State Highs State Lows

Community

WunderPhotos

Upload Photos

1,755,737 photos uploaded!

WunderBlogs® & News

Nearby

Snow Depth

Station Depth Elevation
No new snow has been reported.

Earthquake Activity

City Distance Mag. Time & Date
No recent earthquake activity has been reported nearby.
Minimum magnitude displayed is 2.5.

Coastal Water Temperatures

Place Temperature
Beaufort, NC 75.0 °F
Johnny Mercer Pier, Wrightsville Beach, NC 79.0 °F
Hatteras, NC 73.9 °F
Oregon Inlet Marina, NC 73.0 °F

Nearby Weather Stations